createdAt,value
2022-12-20T00:00:10.643Z,99901.20
2022-12-20T00:03:14.261Z,99897.04
2022-12-20T00:06:18.513Z,99889.52
2022-12-20T00:09:21.664Z,99890.42
2022-12-20T00:12:24.763Z,99892.77
2022-12-20T00:15:27.653Z,99887.79
2022-12-20T00:18:30.876Z,99888.77
2022-12-20T00:21:35.260Z,99885.48
2022-12-20T00:24:38.487Z,99880.41
2022-12-20T00:27:41.578Z,99877.05
2022-12-20T00:30:44.495Z,99879.09
2022-12-20T00:33:49.483Z,99884.20
2022-12-20T00:36:52.497Z,99882.02
2022-12-20T00:39:55.484Z,99877.77
2022-12-20T00:42:58.471Z,99874.05
2022-12-20T00:46:02.073Z,99876.46
2022-12-20T00:49:06.805Z,99877.98
2022-12-20T00:52:09.796Z,99885.17
2022-12-20T00:55:12.907Z,99891.45
2022-12-20T00:58:16.183Z,99891.80
2022-12-20T01:01:22.908Z,99895.27
2022-12-20T01:04:25.952Z,99900.20
2022-12-20T01:07:28.942Z,99900.41
2022-12-20T01:10:32.544Z,99896.48
2022-12-20T01:13:37.982Z,99896.36
2022-12-20T01:16:44.253Z,99896.16
2022-12-20T01:19:46.324Z,99900.65
2022-12-20T01:22:50.437Z,99901.58
2022-12-20T01:25:53.428Z,99905.21
2022-12-20T01:28:59.518Z,99903.15
2022-12-20T01:32:02.448Z,99898.78
2022-12-20T01:35:06.786Z,99897.01
2022-12-20T01:38:09.553Z,99892.60
2022-12-20T01:41:16.340Z,99883.50
2022-12-20T01:44:57.745Z,99873.46
2022-12-20T01:48:01.186Z,99871.17
2022-12-20T01:51:04.606Z,99865.58
2022-12-20T01:54:13.470Z,99857.06
2022-12-20T01:57:21.005Z,99850.90
2022-12-20T02:00:24.178Z,99846.24
2022-12-20T02:03:29.671Z,99840.55
2022-12-20T02:06:32.511Z,99837.79
2022-12-20T02:09:37.837Z,99831.11
2022-12-20T02:12:42.711Z,99821.58
2022-12-20T02:15:53.734Z,99816.00
2022-12-20T02:19:07.499Z,99810.29
2022-12-20T02:22:23.513Z,99809.83
2022-12-20T02:25:57.848Z,99804.94
2022-12-20T02:29:20.776Z,99801.51
2022-12-20T02:32:28.581Z,99807.48
2022-12-20T02:35:36.019Z,99802.80
2022-12-20T02:38:39.096Z,99801.33
2022-12-20T02:41:45.418Z,99801.12
2022-12-20T02:45:08.376Z,99807.14
2022-12-20T02:48:12.059Z,99813.51
2022-12-20T02:51:17.742Z,99811.88
2022-12-20T02:54:21.112Z,99804.59
2022-12-20T02:57:32.968Z,99796.60
2022-12-20T03:00:42.565Z,99791.48
2022-12-20T03:03:45.977Z,99793.75
2022-12-20T03:07:01.096Z,99796.20
2022-12-20T03:10:04.630Z,99791.00
2022-12-20T03:13:07.455Z,99782.55
2022-12-20T03:16:10.543Z,99792.27
2022-12-20T03:19:13.343Z,99792.92
2022-12-20T03:22:16.118Z,99793.95
2022-12-20T03:25:18.912Z,99794.53
2022-12-20T03:28:21.685Z,99802.04
2022-12-20T03:31:24.606Z,99798.58
2022-12-20T03:34:27.996Z,99799.17
2022-12-20T03:37:30.830Z,99790.19
2022-12-20T03:40:33.633Z,99788.27
2022-12-20T03:43:36.446Z,99783.42
2022-12-20T03:46:39.320Z,99772.01
2022-12-20T03:49:42.133Z,99769.38
2022-12-20T03:52:44.961Z,99772.08
2022-12-20T03:55:47.749Z,99764.45
2022-12-20T03:58:50.513Z,99758.32
2022-12-20T04:01:53.392Z,99753.11
2022-12-20T04:04:56.205Z,99758.04
2022-12-20T04:07:58.997Z,99764.27
2022-12-20T04:11:17.043Z,99761.35
2022-12-20T04:14:19.925Z,99761.45
2022-12-20T04:17:22.731Z,99762.85
2022-12-20T04:20:25.488Z,99767.98
2022-12-20T04:23:28.244Z,99755.88
2022-12-20T04:26:31.455Z,99744.60
2022-12-20T04:29:34.235Z,99740.38
2022-12-20T04:32:37.036Z,99745.27
2022-12-20T04:35:39.920Z,99741.66
2022-12-20T04:38:42.679Z,99741.15
2022-12-20T04:41:45.489Z,99749.65
2022-12-20T04:44:48.264Z,99744.54
2022-12-20T04:47:51.257Z,99738.48
2022-12-20T04:50:55.392Z,99734.31
2022-12-20T04:53:58.193Z,99727.75
2022-12-20T04:57:01.052Z,99721.55
2022-12-20T05:00:05.244Z,99718.05
2022-12-20T05:03:08.395Z,99712.23
2022-12-20T05:06:12.045Z,99708.23
2022-12-20T05:09:14.800Z,99705.88
2022-12-20T05:12:17.567Z,99706.61
2022-12-20T05:15:20.326Z,99706.84
2022-12-20T05:18:23.921Z,99701.10
2022-12-20T05:21:44.773Z,99706.80
2022-12-20T05:25:06.088Z,99710.02
2022-12-20T05:28:08.934Z,99712.86
2022-12-20T05:31:11.893Z,99721.41
2022-12-20T05:34:14.800Z,99723.91
2022-12-20T05:37:17.905Z,99725.77
2022-12-20T05:40:20.671Z,99727.70
2022-12-20T05:43:23.438Z,99726.98
2022-12-20T05:46:26.300Z,99729.89
2022-12-20T05:49:29.147Z,99730.14
2022-12-20T05:52:32.601Z,99721.52
2022-12-20T05:55:35.355Z,99725.54
2022-12-20T05:58:38.402Z,99724.39
2022-12-20T06:01:41.289Z,99730.52
2022-12-20T06:04:44.231Z,99731.64
2022-12-20T06:07:47.008Z,99729.08
2022-12-20T06:10:50.787Z,99730.36
2022-12-20T06:13:53.627Z,99735.52
2022-12-20T06:16:56.429Z,99742.55
2022-12-20T06:19:59.244Z,99747.68
2022-12-20T06:23:02.321Z,99745.92
2022-12-20T06:26:08.620Z,99744.07
2022-12-20T06:29:13.561Z,99743.63
2022-12-20T06:32:16.321Z,99742.11
2022-12-20T06:35:19.079Z,99740.84
2022-12-20T06:38:21.891Z,99736.14
2022-12-20T06:41:24.655Z,99735.45
2022-12-20T06:44:27.403Z,99729.73
2022-12-20T06:47:30.457Z,99725.05
2022-12-20T06:50:33.331Z,99725.61
2022-12-20T06:53:36.079Z,99725.88
2022-12-20T06:56:41.575Z,99728.61
2022-12-20T06:59:44.685Z,99726.94
2022-12-20T07:02:47.595Z,99727.71
2022-12-20T07:05:53.439Z,99723.33
2022-12-20T07:08:56.229Z,99721.18
2022-12-20T07:11:59.208Z,99718.90
2022-12-20T07:15:01.987Z,99721.23
2022-12-20T07:18:06.208Z,99723.41
2022-12-20T07:21:09.077Z,99721.23
2022-12-20T07:24:11.869Z,99713.02
2022-12-20T07:27:14.633Z,99709.06
2022-12-20T07:30:19.568Z,99709.08
2022-12-20T07:33:22.355Z,99704.93
2022-12-20T07:36:25.159Z,99702.71
2022-12-20T07:39:28.637Z,99707.47
2022-12-20T07:42:36.097Z,99705.66
2022-12-20T07:45:42.181Z,99706.92
2022-12-20T07:48:45.419Z,99706.19
2022-12-20T07:51:52.275Z,99705.40
2022-12-20T07:54:59.736Z,99707.14
2022-12-20T07:58:06.538Z,99706.94
2022-12-20T08:01:12.204Z,99711.45
2022-12-20T08:04:20.581Z,99710.44
2022-12-20T08:07:24.399Z,99708.27
2022-12-20T08:10:28.413Z,99707.27
2022-12-20T08:13:32.612Z,99710.10
2022-12-20T08:16:35.783Z,99708.16
2022-12-20T08:19:38.626Z,99713.11
2022-12-20T08:22:41.410Z,99710.55
2022-12-20T08:25:44.366Z,99709.27
2022-12-20T08:28:47.162Z,99717.60
2022-12-20T08:31:50.774Z,99724.35
2022-12-20T08:34:54.732Z,99718.77
2022-12-20T08:37:57.636Z,99711.09
2022-12-20T08:41:04.472Z,99713.13
2022-12-20T08:44:07.575Z,99707.79
2022-12-20T08:47:10.444Z,99703.04
2022-12-20T08:50:13.381Z,99704.47
2022-12-20T08:53:16.216Z,99704.41
2022-12-20T08:56:19.718Z,99700.64
2022-12-20T08:59:22.612Z,99691.60
2022-12-20T09:02:25.551Z,99700.45
2022-12-20T09:05:28.516Z,99697.65
2022-12-20T09:08:31.310Z,99691.83
2022-12-20T09:11:34.569Z,99687.08
2022-12-20T09:14:38.204Z,99679.34
2022-12-20T09:17:41.052Z,99671.53
2022-12-20T09:20:44.988Z,99672.67
2022-12-20T09:23:50.156Z,99676.34
2022-12-20T09:26:53.605Z,99673.35
2022-12-20T09:29:57.088Z,99659.45
2022-12-20T09:33:08.586Z,99658.68
2022-12-20T09:36:16.647Z,99654.85
2022-12-20T09:39:20.117Z,99656.66
2022-12-20T09:42:26.779Z,99656.97
2022-12-20T09:45:30.729Z,99651.21
2022-12-20T09:48:37.769Z,99643.11
2022-12-20T09:51:58.394Z,99633.90
2022-12-20T09:55:13.083Z,99630.83
2022-12-20T09:58:41.541Z,99630.70
2022-12-20T10:01:47.039Z,99634.73
2022-12-20T10:04:51.486Z,99638.19
2022-12-20T10:08:03.496Z,99642.52
2022-12-20T10:11:16.752Z,99637.58
2022-12-20T10:14:37.279Z,99636.45
2022-12-20T10:18:05.175Z,99634.84
2022-12-20T10:21:16.381Z,99638.33
2022-12-20T10:24:25.037Z,99639.38
2022-12-20T10:27:28.863Z,99636.33
2022-12-20T10:30:34.983Z,99626.00
2022-12-20T10:33:38.789Z,99620.73
2022-12-20T10:36:42.289Z,99620.17
2022-12-20T10:39:49.929Z,99620.77
2022-12-20T10:42:53.726Z,99613.70
2022-12-20T10:46:00.540Z,99606.97
2022-12-20T10:49:23.218Z,99599.45
2022-12-20T10:52:28.853Z,99586.12
2022-12-20T10:55:37.755Z,99580.02
2022-12-20T10:58:41.647Z,99570.63
2022-12-20T11:01:47.007Z,99563.03
2022-12-20T11:05:00.122Z,99558.48
2022-12-20T11:08:35.334Z,99548.55
2022-12-20T11:11:39.523Z,99534.82
2022-12-20T11:14:44.696Z,99524.51
2022-12-20T11:17:51.442Z,99518.92
2022-12-20T11:21:03.701Z,99513.85
2022-12-20T11:24:14.331Z,99505.73
2022-12-20T11:27:29.899Z,99506.06
2022-12-20T11:30:43.967Z,99503.06
2022-12-20T11:34:00.172Z,99501.31
2022-12-20T11:37:23.355Z,99500.09
2022-12-20T11:40:32.424Z,99507.03
2022-12-20T11:44:24.596Z,99500.39
2022-12-20T11:48:01.490Z,99501.34
2022-12-20T11:51:15.274Z,99500.90
2022-12-20T11:54:26.499Z,99504.16
2022-12-20T11:58:01.769Z,99496.95
2022-12-20T12:01:08.043Z,99497.63
2022-12-20T12:04:18.190Z,99491.58
2022-12-20T12:07:25.476Z,99494.23
2022-12-20T12:10:34.240Z,99490.34
2022-12-20T12:13:40.185Z,99479.55
2022-12-20T12:16:49.079Z,99488.66
2022-12-20T12:19:57.071Z,99506.92
2022-12-20T12:23:05.856Z,99503.38
2022-12-20T12:26:15.094Z,99489.86
2022-12-20T12:29:19.704Z,99484.13
2022-12-20T12:32:30.659Z,99485.85
2022-12-20T12:35:54.023Z,99483.44
2022-12-20T12:39:27.129Z,99477.85
2022-12-20T12:42:47.666Z,99474.10
2022-12-20T12:45:55.733Z,99463.55
2022-12-20T12:49:05.118Z,99458.88
2022-12-20T12:52:28.752Z,99459.94
2022-12-20T12:55:42.916Z,99445.88
2022-12-20T12:59:13.624Z,99445.55
2022-12-20T13:02:52.467Z,99443.91
2022-12-20T13:05:56.007Z,99440.20
2022-12-20T13:09:20.217Z,99433.56
2022-12-20T13:12:58.097Z,99423.38
2022-12-20T13:17:09.469Z,99437.05
2022-12-20T13:19:56.958Z,99439.23
2022-12-20T13:23:17.148Z,99446.94
2022-12-20T13:26:50.474Z,99444.98
2022-12-20T13:29:58.222Z,99454.67
2022-12-20T13:33:22.856Z,99464.88
2022-12-20T13:36:37.147Z,99471.46
2022-12-20T13:39:40.688Z,99472.67
2022-12-20T13:42:44.985Z,99472.89
2022-12-20T13:45:50.757Z,99475.36
2022-12-20T13:49:02.420Z,99469.56
2022-12-20T13:52:16.684Z,99469.50
2022-12-20T14:25:27.095Z,99462.55
2022-12-20T14:28:35.843Z,99464.37
2022-12-20T14:31:43.018Z,99476.80
2022-12-20T14:34:47.544Z,99482.70
2022-12-20T14:37:56.537Z,99487.36
2022-12-20T14:41:00.164Z,99489.90
2022-12-20T14:44:14.082Z,99483.94
2022-12-20T14:47:22.994Z,99482.85
2022-12-20T14:50:30.355Z,99485.05
2022-12-20T14:53:36.096Z,99486.71
2022-12-20T14:56:46.993Z,99499.63
2022-12-20T15:00:01.331Z,99503.20
2022-12-20T15:03:17.293Z,99502.83
2022-12-20T15:06:37.908Z,99499.08
2022-12-20T15:09:42.073Z,99503.53
2022-12-20T15:12:46.183Z,99508.52
2022-12-20T15:15:49.818Z,99508.27
2022-12-20T15:18:55.329Z,99507.91
2022-12-20T15:22:00.085Z,99510.76
2022-12-20T15:25:05.826Z,99514.22
2022-12-20T15:28:17.779Z,99519.15
2022-12-20T15:31:30.705Z,99523.77
2022-12-20T15:34:38.436Z,99523.92
2022-12-20T15:37:41.902Z,99529.19
2022-12-20T15:40:46.664Z,99526.33
2022-12-20T15:43:52.450Z,99517.92
2022-12-20T15:46:56.340Z,99516.20
2022-12-20T15:50:00.025Z,99511.87
2022-12-20T15:53:03.726Z,99506.09
2022-12-20T15:56:16.837Z,99502.83
2022-12-20T15:59:57.882Z,99503.16
2022-12-20T16:02:45.230Z,99502.83
2022-12-20T16:05:50.633Z,99498.40
2022-12-20T16:08:54.092Z,99499.83
2022-12-20T16:11:57.700Z,99499.16
2022-12-20T16:15:01.246Z,99497.83
2022-12-20T16:18:05.208Z,99506.28
2022-12-20T16:21:15.152Z,99506.80
2022-12-20T16:24:20.668Z,99510.49
2022-12-20T16:27:24.408Z,99509.54
2022-12-20T16:30:28.492Z,99511.31
2022-12-20T16:33:32.035Z,99516.77
2022-12-20T16:36:35.733Z,99504.39
2022-12-20T16:39:39.451Z,99510.08
2022-12-20T16:42:43.233Z,99506.55
2022-12-20T16:45:46.788Z,99488.63
2022-12-20T16:48:50.420Z,99478.89
2022-12-20T16:51:53.913Z,99470.59
2022-12-20T16:54:57.587Z,99463.07
2022-12-20T16:58:01.213Z,99464.55
2022-12-20T17:01:04.957Z,99456.51
2022-12-20T17:04:14.221Z,99451.98
2022-12-20T17:07:17.812Z,99462.92
2022-12-20T17:10:21.685Z,99458.31
2022-12-20T17:13:25.432Z,99451.45
2022-12-20T17:16:29.114Z,99446.08
2022-12-20T17:19:32.760Z,99450.16
2022-12-20T17:25:58.279Z,99450.79
2022-12-20T17:29:02.599Z,99445.55
2022-12-20T17:32:18.688Z,99438.84
2022-12-20T17:35:25.828Z,99438.11
2022-12-20T17:38:29.380Z,99428.64
2022-12-20T17:41:33.824Z,99425.06
2022-12-20T17:44:37.409Z,99434.36
2022-12-20T17:47:40.911Z,99435.45
2022-12-20T17:50:44.392Z,99444.05
2022-12-20T17:53:50.968Z,99443.38
2022-12-20T17:56:55.810Z,99424.52
2022-12-20T17:59:59.395Z,99419.17
2022-12-20T18:03:03.105Z,99425.69
2022-12-20T18:06:09.315Z,99422.29
2022-12-20T18:09:15.276Z,99411.22
2022-12-20T18:12:18.794Z,99406.71
2022-12-20T18:15:22.371Z,99401.58
2022-12-20T18:18:25.957Z,99401.31
2022-12-20T18:21:29.665Z,99409.05
2022-12-20T18:24:33.431Z,99391.59
2022-12-20T18:27:42.296Z,99386.79
2022-12-20T18:30:45.801Z,99380.23
2022-12-20T18:33:55.657Z,99373.19
2022-12-20T18:37:01.643Z,99360.17
2022-12-20T18:40:08.083Z,99352.29
2022-12-20T18:43:11.584Z,99347.51
2022-12-20T18:46:16.472Z,99350.53
2022-12-20T18:49:20.539Z,99349.66
2022-12-20T18:52:24.132Z,99349.15
2022-12-20T18:55:27.642Z,99359.57
2022-12-20T18:58:31.463Z,99372.05
2022-12-20T19:01:36.229Z,99373.42
2022-12-20T19:04:39.787Z,99371.13
2022-12-20T19:07:43.349Z,99368.90
2022-12-20T19:10:47.554Z,99367.70
2022-12-20T19:13:51.647Z,99364.69
2022-12-20T19:16:55.360Z,99360.42
2022-12-20T19:19:58.932Z,99353.95
2022-12-20T19:23:02.634Z,99353.58
2022-12-20T19:26:08.337Z,99358.88
2022-12-20T19:29:11.894Z,99353.63
2022-12-20T19:32:15.467Z,99349.89
2022-12-20T19:35:53.447Z,99351.92
2022-12-20T19:38:44.855Z,99355.58
2022-12-20T19:42:14.000Z,99352.63
2022-12-20T19:45:12.926Z,99350.66
2022-12-20T19:48:16.404Z,99344.42
2022-12-20T19:51:21.200Z,99339.59
2022-12-20T19:54:24.673Z,99336.84
2022-12-20T19:57:28.128Z,99335.27
2022-12-20T20:00:31.732Z,99335.39
2022-12-20T20:03:36.152Z,99333.16
2022-12-20T20:06:39.773Z,99326.30
2022-12-20T20:09:43.283Z,99330.05
2022-12-20T20:12:46.778Z,99329.38
2022-12-20T20:15:54.891Z,99330.37
2022-12-20T20:18:58.678Z,99339.90
2022-12-20T20:22:02.192Z,99343.66
2022-12-20T20:25:07.144Z,99346.69
2022-12-20T20:28:10.612Z,99352.33
2022-12-20T20:31:15.829Z,99358.02
2022-12-20T20:34:19.326Z,99352.72
2022-12-20T20:37:22.877Z,99350.23
2022-12-20T20:40:26.522Z,99351.51
2022-12-20T20:43:31.866Z,99348.59
2022-12-20T20:46:35.612Z,99348.44
2022-12-20T20:49:39.237Z,99346.95
2022-12-20T20:52:43.352Z,99340.14
2022-12-20T20:55:47.162Z,99341.39
2022-12-20T20:58:51.901Z,99337.19
2022-12-20T21:01:55.612Z,99334.91
2022-12-20T21:05:52.591Z,99326.08
2022-12-20T21:08:22.877Z,99317.98
2022-12-20T21:11:27.651Z,99313.85
2022-12-20T21:15:12.282Z,99310.66
2022-12-20T21:17:54.995Z,99312.58
2022-12-20T21:20:58.501Z,99309.13
2022-12-20T21:24:02.093Z,99303.52
2022-12-20T21:27:05.670Z,99305.70
2022-12-20T21:30:11.207Z,99311.36
2022-12-20T21:33:14.756Z,99313.79
2022-12-20T21:36:19.297Z,99321.84
2022-12-20T21:39:23.049Z,99316.71
2022-12-20T21:42:26.630Z,99307.96
2022-12-20T21:45:30.228Z,99298.03
2022-12-20T21:48:33.795Z,99294.07
2022-12-20T21:51:37.341Z,99296.87
2022-12-20T21:54:42.352Z,99293.36
2022-12-20T21:57:47.568Z,99288.19
2022-12-20T22:00:54.838Z,99291.57
2022-12-20T22:04:00.850Z,99285.23
2022-12-20T22:07:04.422Z,99275.02
2022-12-20T22:10:10.156Z,99272.70
2022-12-20T22:13:14.334Z,99268.29
2022-12-20T22:16:20.306Z,99266.80
2022-12-20T22:19:23.889Z,99263.12
2022-12-20T22:22:27.462Z,99246.50
2022-12-20T22:25:31.180Z,99238.86
2022-12-20T22:28:34.656Z,99225.11
2022-12-20T22:31:38.323Z,99217.45
2022-12-20T22:34:41.962Z,99215.62
2022-12-20T22:37:45.594Z,99216.11
2022-12-20T22:40:49.121Z,99215.54
2022-12-20T22:43:53.213Z,99211.06
2022-12-20T22:47:06.319Z,99210.63
2022-12-20T22:50:11.884Z,99205.08
2022-12-20T22:53:15.379Z,99202.60
2022-12-20T22:56:20.514Z,99204.66
2022-12-20T22:59:24.218Z,99202.09
2022-12-20T23:02:28.246Z,99190.14
2022-12-20T23:05:31.873Z,99186.33
2022-12-20T23:08:36.737Z,99194.01
2022-12-20T23:11:58.810Z,99195.62
2022-12-20T23:15:20.747Z,99189.25
2022-12-20T23:18:24.299Z,99177.42
2022-12-20T23:21:46.394Z,99170.17
2022-12-20T23:24:49.835Z,99164.89
2022-12-20T23:27:53.778Z,99159.98
2022-12-20T23:30:57.398Z,99151.84
2022-12-20T23:34:01.413Z,99153.36
2022-12-20T23:37:05.063Z,99149.26
2022-12-20T23:40:11.409Z,99140.98
2022-12-20T23:43:13.863Z,99146.27
2022-12-20T23:46:19.269Z,99152.45
2022-12-20T23:49:22.920Z,99147.33
2022-12-20T23:52:26.562Z,99139.42
2022-12-20T23:55:30.070Z,99138.27
2022-12-20T23:58:33.846Z,99135.27
